createdAt,value
2023-05-04T00:00:08.362Z,8.95
2023-05-04T00:02:35.094Z,8.73
2023-05-04T00:05:01.947Z,8.33
2023-05-04T00:07:28.433Z,8.98
2023-05-04T00:09:55.132Z,9.60
2023-05-04T00:12:21.792Z,8.50
2023-05-04T00:14:48.693Z,8.98
2023-05-04T00:17:15.312Z,8.67
2023-05-04T00:19:41.919Z,8.63
2023-05-04T00:22:08.455Z,8.73
2023-05-04T00:24:35.014Z,8.75
2023-05-04T00:27:01.484Z,8.00
2023-05-04T00:29:28.336Z,9.03
2023-05-04T00:31:54.986Z,8.85
2023-05-04T00:34:21.559Z,8.55
2023-05-04T00:36:48.278Z,8.45
2023-05-04T00:39:14.787Z,9.40
2023-05-04T00:41:41.482Z,9.50
2023-05-04T00:44:08.150Z,8.68
2023-05-04T00:46:34.894Z,8.98
2023-05-04T00:49:01.668Z,8.98
2023-05-04T00:51:28.430Z,8.43
2023-05-04T00:53:55.784Z,9.73
2023-05-04T00:56:25.661Z,8.57
2023-05-04T00:58:53.375Z,9.30
2023-05-04T01:01:21.113Z,9.02
2023-05-04T01:03:49.533Z,8.95
2023-05-04T01:06:41.409Z,9.13
2023-05-04T01:09:49.894Z,9.52
2023-05-04T01:12:31.537Z,9.07
2023-05-04T01:14:59.697Z,9.18
2023-05-04T01:17:26.445Z,9.25
2023-05-04T01:19:52.972Z,9.27
2023-05-04T01:22:23.094Z,10.02
2023-05-04T01:24:50.629Z,9.85
2023-05-04T01:27:25.318Z,9.50
2023-05-04T01:30:08.960Z,9.60
2023-05-04T01:32:38.082Z,9.57
2023-05-04T01:35:04.946Z,9.57
2023-05-04T01:37:31.445Z,9.23
2023-05-04T01:39:57.838Z,9.18
2023-05-04T01:42:24.350Z,9.20
2023-05-04T01:44:50.780Z,9.83
2023-05-04T01:47:17.605Z,9.70
2023-05-04T01:49:44.339Z,9.38
2023-05-04T01:52:10.925Z,10.00
2023-05-04T01:54:37.426Z,9.90
2023-05-04T01:57:03.883Z,9.53
2023-05-04T01:59:30.370Z,10.30
2023-05-04T02:01:57.132Z,10.40
2023-05-04T02:04:23.606Z,10.02
2023-05-04T02:06:50.099Z,10.18
2023-05-04T02:09:16.587Z,9.70
2023-05-04T02:11:43.150Z,9.88
2023-05-04T02:14:09.678Z,9.95
2023-05-04T02:16:36.218Z,10.02
2023-05-04T02:19:02.709Z,9.65
2023-05-04T02:21:29.303Z,9.83
2023-05-04T02:23:55.727Z,9.82
2023-05-04T02:26:22.182Z,10.38
2023-05-04T02:28:48.593Z,10.10
2023-05-04T02:31:15.122Z,10.43
2023-05-04T02:33:41.643Z,9.87
2023-05-04T02:36:08.432Z,10.13
2023-05-04T02:38:34.971Z,10.23
2023-05-04T02:41:01.415Z,10.13
2023-05-04T02:43:27.885Z,9.68
2023-05-04T02:45:54.486Z,10.00
2023-05-04T02:48:22.087Z,10.20
2023-05-04T02:50:48.643Z,10.40
2023-05-04T02:53:15.086Z,10.27
2023-05-04T02:55:41.650Z,10.23
2023-05-04T02:58:08.107Z,10.40
2023-05-04T03:00:34.748Z,10.45
2023-05-04T03:03:01.335Z,10.60
2023-05-04T03:05:27.917Z,10.18
2023-05-04T03:07:54.531Z,10.27
2023-05-04T03:10:21.020Z,10.13
2023-05-04T03:12:47.624Z,10.23
2023-05-04T03:15:14.170Z,10.20
2023-05-04T03:17:41.498Z,10.20
2023-05-04T03:20:08.680Z,9.85
2023-05-04T03:22:35.867Z,10.33
2023-05-04T03:25:02.373Z,10.00
2023-05-04T03:27:28.852Z,9.23
2023-05-04T03:29:55.367Z,10.55
2023-05-04T03:32:22.010Z,9.93
2023-05-04T03:34:48.519Z,9.67
2023-05-04T03:37:14.972Z,9.75
2023-05-04T03:39:41.374Z,10.43
2023-05-04T03:42:07.944Z,10.05
2023-05-04T03:44:34.480Z,10.20
2023-05-04T03:47:00.983Z,10.80
2023-05-04T03:49:27.716Z,10.68
2023-05-04T03:51:54.154Z,10.75
2023-05-04T03:54:20.616Z,10.30
2023-05-04T03:56:47.173Z,10.88
2023-05-04T03:59:13.667Z,10.33
2023-05-04T04:01:40.084Z,11.02
2023-05-04T04:04:06.568Z,10.48
2023-05-04T04:06:33.079Z,11.35
2023-05-04T04:08:59.709Z,10.43
2023-05-04T04:11:26.181Z,10.00
2023-05-04T04:13:53.226Z,10.55
2023-05-04T04:16:19.845Z,11.82
2023-05-04T04:18:46.451Z,11.15
2023-05-04T04:21:13.041Z,11.25
2023-05-04T04:23:39.465Z,10.77
2023-05-04T04:26:05.961Z,11.23
2023-05-04T04:28:33.296Z,10.80
2023-05-04T04:31:00.220Z,10.85
2023-05-04T04:33:26.697Z,10.88
2023-05-04T04:35:53.254Z,10.80
2023-05-04T04:38:19.887Z,10.18
2023-05-04T04:40:46.420Z,11.02
2023-05-04T04:43:13.185Z,10.68
2023-05-04T04:45:39.692Z,11.23
2023-05-04T04:48:06.465Z,10.40
2023-05-04T04:50:33.223Z,10.75
2023-05-04T04:52:59.683Z,11.30
2023-05-04T04:55:26.392Z,10.35
2023-05-04T04:57:52.809Z,11.07
2023-05-04T05:00:19.699Z,10.10
2023-05-04T05:02:46.169Z,11.00
2023-05-04T05:05:12.751Z,10.85
2023-05-04T05:07:39.580Z,10.43
2023-05-04T05:10:07.012Z,11.00
2023-05-04T05:12:33.748Z,10.47
2023-05-04T05:15:00.283Z,11.68
2023-05-04T05:17:26.836Z,10.73
2023-05-04T05:19:53.375Z,10.48
2023-05-04T05:22:20.163Z,10.55
2023-05-04T05:24:46.612Z,10.87
2023-05-04T05:27:13.135Z,10.35
2023-05-04T05:29:39.695Z,10.88
2023-05-04T05:32:06.271Z,10.40
2023-05-04T05:34:32.789Z,10.75
2023-05-04T05:36:59.296Z,10.10
2023-05-04T05:39:25.854Z,10.40
2023-05-04T05:41:56.313Z,10.60
2023-05-04T05:44:22.755Z,10.10
2023-05-04T05:46:49.289Z,9.98
2023-05-04T05:49:15.830Z,10.57
2023-05-04T05:51:42.367Z,10.10
2023-05-04T05:54:08.852Z,10.90
2023-05-04T05:56:35.364Z,9.52
2023-05-04T05:59:01.793Z,10.10
2023-05-04T06:01:28.232Z,9.47
2023-05-04T06:03:54.874Z,9.98
2023-05-04T06:06:21.470Z,10.05
2023-05-04T06:08:48.331Z,9.82
2023-05-04T06:11:14.731Z,10.23
2023-05-04T06:13:41.207Z,9.27
2023-05-04T06:16:07.723Z,9.70
2023-05-04T06:18:34.245Z,9.85
2023-05-04T06:21:01.282Z,9.52
2023-05-04T06:23:28.677Z,9.23
2023-05-04T06:25:55.133Z,9.70
2023-05-04T06:28:21.678Z,9.63
2023-05-04T06:30:48.442Z,9.32
2023-05-04T06:33:15.255Z,8.82
2023-05-04T06:35:42.000Z,9.52
2023-05-04T06:38:08.637Z,8.97
2023-05-04T06:40:35.141Z,8.43
2023-05-04T06:43:01.745Z,8.65
2023-05-04T06:45:28.235Z,8.57
2023-05-04T06:47:54.890Z,8.00
2023-05-04T06:50:21.438Z,8.47
2023-05-04T06:52:47.979Z,9.00
2023-05-04T06:55:14.436Z,8.05
2023-05-04T06:57:41.008Z,8.25
2023-05-04T07:00:08.155Z,8.18
2023-05-04T07:02:34.709Z,7.80
2023-05-04T07:05:01.227Z,8.10
2023-05-04T07:07:27.634Z,7.55
2023-05-04T07:09:54.172Z,8.32
2023-05-04T07:12:20.687Z,8.15
2023-05-04T07:14:47.255Z,8.20
2023-05-04T07:17:13.851Z,7.90
2023-05-04T07:19:40.301Z,7.68
2023-05-04T07:22:06.768Z,7.65
2023-05-04T07:24:33.282Z,7.47
2023-05-04T07:26:59.692Z,7.40
2023-05-04T07:29:26.123Z,7.50
2023-05-04T07:31:52.594Z,6.70
2023-05-04T07:34:19.258Z,7.75
2023-05-04T07:36:46.665Z,7.20
2023-05-04T07:39:13.306Z,7.50
2023-05-04T07:41:39.860Z,7.18
2023-05-04T07:44:06.284Z,7.60
2023-05-04T07:46:32.837Z,7.05
2023-05-04T07:48:59.491Z,7.45
2023-05-04T07:51:25.986Z,6.63
2023-05-04T07:53:52.671Z,7.38
2023-05-04T07:56:19.257Z,6.80
2023-05-04T07:58:45.766Z,7.53
2023-05-04T08:01:12.260Z,7.13
2023-05-04T08:03:38.701Z,7.10
2023-05-04T08:06:05.181Z,7.60
2023-05-04T08:08:31.713Z,6.90
2023-05-04T08:11:11.658Z,7.15
2023-05-04T08:13:45.769Z,7.55
2023-05-04T08:16:12.671Z,8.10
2023-05-04T08:18:39.227Z,7.15
2023-05-04T08:21:06.127Z,7.05
2023-05-04T08:23:33.408Z,7.45
2023-05-04T08:26:03.932Z,8.15
2023-05-04T08:28:31.191Z,7.07
2023-05-04T08:30:57.714Z,7.30
2023-05-04T08:33:24.460Z,6.88
2023-05-04T08:35:50.999Z,7.90
2023-05-04T08:38:17.500Z,6.93
2023-05-04T08:40:44.147Z,7.60
2023-05-04T08:43:10.762Z,7.60
2023-05-04T08:45:40.916Z,7.57
2023-05-04T08:48:08.154Z,7.43
2023-05-04T08:50:36.073Z,7.90
2023-05-04T08:53:06.156Z,8.20
2023-05-04T08:55:33.781Z,7.28
2023-05-04T08:58:04.478Z,8.20
2023-05-04T09:00:32.914Z,8.20
2023-05-04T09:03:02.127Z,7.57
2023-05-04T09:05:28.898Z,7.40
2023-05-04T09:07:55.411Z,7.47
2023-05-04T09:10:22.349Z,7.57
2023-05-04T09:12:48.926Z,8.20
2023-05-04T09:15:15.445Z,7.53
2023-05-04T09:17:56.978Z,7.67
2023-05-04T09:20:24.820Z,7.70
2023-05-04T09:23:04.987Z,8.40
2023-05-04T09:25:31.464Z,8.10
2023-05-04T09:27:57.920Z,8.52
2023-05-04T09:30:25.685Z,7.27
2023-05-04T09:32:52.280Z,7.53
2023-05-04T09:35:33.151Z,8.15
2023-05-04T09:38:00.693Z,8.32
2023-05-04T09:40:35.508Z,8.05
2023-05-04T09:43:02.350Z,7.73
2023-05-04T09:45:42.584Z,8.02
2023-05-04T09:48:38.565Z,7.68
2023-05-04T09:51:06.332Z,7.95
2023-05-04T09:53:36.756Z,8.20
2023-05-04T09:56:09.195Z,7.70
2023-05-04T09:58:35.820Z,8.30
2023-05-04T10:01:02.995Z,8.07
2023-05-04T10:03:30.076Z,7.50
2023-05-04T10:05:59.136Z,8.43
2023-05-04T10:08:27.187Z,7.70
2023-05-04T10:10:53.735Z,7.55
2023-05-04T10:13:20.286Z,7.43
2023-05-04T10:16:11.709Z,7.70
2023-05-04T10:18:48.142Z,7.43
2023-05-04T10:21:23.419Z,7.23
2023-05-04T10:23:59.017Z,7.40
2023-05-04T10:26:50.209Z,7.63
2023-05-04T10:29:25.057Z,6.60
2023-05-04T10:31:52.342Z,7.55
2023-05-04T10:34:35.288Z,7.00
2023-05-04T10:37:03.075Z,7.53
2023-05-04T10:39:33.875Z,7.38
2023-05-04T10:42:05.166Z,7.53
2023-05-04T10:44:35.941Z,7.90
2023-05-04T10:47:05.381Z,6.57
2023-05-04T10:49:32.577Z,6.85
2023-05-04T10:52:13.118Z,7.53
2023-05-04T10:54:40.882Z,7.78
2023-05-04T10:57:12.037Z,7.40
2023-05-04T10:59:39.065Z,7.03
2023-05-04T11:02:06.724Z,7.22
2023-05-04T11:04:34.013Z,8.10
2023-05-04T11:07:01.533Z,7.70
2023-05-04T11:09:34.717Z,7.88
2023-05-04T11:12:01.143Z,7.60
2023-05-04T11:14:29.265Z,8.00
2023-05-04T11:17:27.270Z,7.53
2023-05-04T11:19:55.524Z,6.80
2023-05-04T11:22:22.382Z,7.22
2023-05-04T11:24:49.107Z,7.27
2023-05-04T11:27:22.242Z,6.93
2023-05-04T11:30:01.467Z,7.30
2023-05-04T11:32:41.665Z,7.13
2023-05-04T11:35:10.327Z,6.78
2023-05-04T11:37:44.979Z,7.03
2023-05-04T11:40:19.620Z,6.80
2023-05-04T11:42:46.965Z,6.97
2023-05-04T11:45:23.088Z,6.60
2023-05-04T11:47:51.761Z,6.85
2023-05-04T11:50:21.049Z,6.73
2023-05-04T11:52:48.744Z,7.25
2023-05-04T11:55:25.577Z,6.57
2023-05-04T11:58:03.722Z,6.00
2023-05-04T12:00:43.208Z,7.28
2023-05-04T12:03:17.583Z,7.00
2023-05-04T12:05:47.017Z,6.95
2023-05-04T12:08:27.363Z,6.80
2023-05-04T12:11:15.541Z,6.78
2023-05-04T12:13:46.794Z,6.35
2023-05-04T12:16:20.705Z,7.40
2023-05-04T12:18:48.226Z,6.93
2023-05-04T12:21:17.095Z,7.15
2023-05-04T12:23:43.652Z,8.68
2023-05-04T12:26:11.589Z,8.27
2023-05-04T12:28:39.924Z,7.80
2023-05-04T12:31:06.707Z,7.63
2023-05-04T12:33:34.356Z,8.02
2023-05-04T12:36:02.035Z,7.90
2023-05-04T12:38:29.244Z,8.82
2023-05-04T12:40:56.218Z,7.00
2023-05-04T12:43:22.712Z,5.80
2023-05-04T12:45:50.224Z,6.57
2023-05-04T12:48:16.921Z,7.20
2023-05-04T12:50:47.969Z,5.95
2023-05-04T12:53:14.771Z,6.23
2023-05-04T12:55:41.342Z,6.45
2023-05-04T12:58:07.869Z,6.30
2023-05-04T13:00:39.009Z,6.75
2023-05-04T13:03:05.906Z,6.57
2023-05-04T13:05:32.598Z,6.00
2023-05-04T13:07:59.179Z,6.32
2023-05-04T13:10:25.695Z,5.60
2023-05-04T13:12:52.419Z,5.70
2023-05-04T13:15:19.011Z,6.40
2023-05-04T13:17:45.662Z,5.80
2023-05-04T13:20:13.778Z,5.93
2023-05-04T13:22:40.567Z,6.50
2023-05-04T13:25:07.969Z,6.43
2023-05-04T13:27:34.866Z,6.68
2023-05-04T13:30:02.509Z,7.60
2023-05-04T13:32:30.381Z,6.68
2023-05-04T13:34:57.251Z,6.70
2023-05-04T13:37:24.023Z,6.07
2023-05-04T13:39:50.607Z,6.20
2023-05-04T13:42:17.066Z,6.13
2023-05-04T13:44:43.583Z,6.38
2023-05-04T13:47:11.035Z,6.32
2023-05-04T13:49:37.568Z,6.20
2023-05-04T13:52:04.097Z,5.72
2023-05-04T13:54:30.653Z,5.03
2023-05-04T13:56:57.202Z,5.78
2023-05-04T13:59:23.880Z,5.50
2023-05-04T14:01:50.697Z,5.35
2023-05-04T14:04:17.201Z,5.38
2023-05-04T14:06:43.789Z,5.67
2023-05-04T14:09:10.304Z,5.80
2023-05-04T14:11:36.875Z,5.55
2023-05-04T14:14:03.457Z,5.63
2023-05-04T14:16:30.010Z,6.05
2023-05-04T14:18:56.594Z,5.90
2023-05-04T14:21:23.050Z,5.32
2023-05-04T14:23:49.492Z,5.80
2023-05-04T14:26:17.027Z,5.60
2023-05-04T14:28:43.535Z,5.88
2023-05-04T14:31:09.984Z,5.73
2023-05-04T14:33:36.722Z,6.07
2023-05-04T14:36:04.058Z,6.28
2023-05-04T14:38:30.585Z,6.18
2023-05-04T14:40:57.160Z,6.10
2023-05-04T14:43:23.666Z,5.43
2023-05-04T14:45:50.123Z,5.93
2023-05-04T14:48:17.196Z,6.00
2023-05-04T14:50:44.013Z,6.10
2023-05-04T14:53:10.641Z,5.53
2023-05-04T14:55:37.193Z,5.80
2023-05-04T14:58:03.659Z,5.18
2023-05-04T15:00:30.137Z,5.95
2023-05-04T15:02:56.685Z,5.25
2023-05-04T15:05:26.128Z,5.93
2023-05-04T15:07:52.605Z,5.87
2023-05-04T15:10:19.086Z,5.40
2023-05-04T15:12:45.549Z,5.70
2023-05-04T15:15:12.246Z,5.30
2023-05-04T15:17:38.831Z,5.55
2023-05-04T15:20:06.403Z,5.90
2023-05-04T15:22:33.324Z,5.50
2023-05-04T15:24:59.785Z,5.55
2023-05-04T15:27:26.612Z,5.25
2023-05-04T15:29:53.124Z,5.68
2023-05-04T15:32:19.550Z,6.37
2023-05-04T15:34:57.247Z,5.47
2023-05-04T15:37:30.755Z,5.05
2023-05-04T15:39:58.220Z,4.82
2023-05-04T15:42:26.071Z,5.50
2023-05-04T15:44:52.773Z,4.93
2023-05-04T15:47:19.368Z,5.03
2023-05-04T15:49:45.971Z,5.18
2023-05-04T15:52:12.400Z,5.10
2023-05-04T15:54:38.845Z,5.03
2023-05-04T15:57:05.277Z,5.27
2023-05-04T15:59:31.720Z,4.75
2023-05-04T16:01:58.284Z,5.15
2023-05-04T16:04:24.849Z,4.90
2023-05-04T16:06:51.488Z,5.05
2023-05-04T16:09:17.915Z,4.70
2023-05-04T16:11:44.573Z,4.30
2023-05-04T16:14:11.035Z,4.63
2023-05-04T16:16:38.434Z,4.70
2023-05-04T16:19:05.028Z,4.63
2023-05-04T16:21:32.538Z,4.20
2023-05-04T16:23:58.999Z,4.50
2023-05-04T16:26:25.507Z,4.22
2023-05-04T16:28:51.901Z,4.25
2023-05-04T16:31:18.475Z,4.47
2023-05-04T16:33:44.966Z,4.60
2023-05-04T16:36:11.604Z,4.22
2023-05-04T16:38:38.100Z,4.80
2023-05-04T16:41:04.650Z,4.40
2023-05-04T16:43:31.267Z,4.35
2023-05-04T16:45:57.791Z,4.20
2023-05-04T16:48:24.342Z,4.53
2023-05-04T16:50:50.763Z,4.63
2023-05-04T16:53:17.360Z,4.80
2023-05-04T16:55:43.840Z,4.45
2023-05-04T16:58:10.527Z,4.50
2023-05-04T17:00:40.416Z,4.40
2023-05-04T17:03:07.088Z,4.65
2023-05-04T17:05:34.430Z,4.72
2023-05-04T17:08:01.026Z,4.72
2023-05-04T17:10:27.580Z,4.37
2023-05-04T17:12:54.949Z,4.60
2023-05-04T17:15:21.491Z,5.10
2023-05-04T17:17:48.165Z,4.35
2023-05-04T17:20:15.042Z,4.32
2023-05-04T17:22:44.776Z,4.40
2023-05-04T17:25:12.171Z,4.30
2023-05-04T17:27:39.081Z,4.10
2023-05-04T17:30:06.421Z,4.25
2023-05-04T17:32:33.685Z,4.32
2023-05-04T17:35:08.357Z,4.13
2023-05-04T17:37:42.836Z,4.50
2023-05-04T17:40:10.102Z,4.68
2023-05-04T17:42:36.950Z,4.03
2023-05-04T17:45:03.629Z,4.25
2023-05-04T17:47:30.211Z,4.00
2023-05-04T17:49:56.804Z,4.30
2023-05-04T17:52:23.319Z,4.22
2023-05-04T17:54:49.845Z,4.03
2023-05-04T17:57:16.509Z,4.32
2023-05-04T17:59:43.195Z,4.20
2023-05-04T18:02:09.831Z,4.10
2023-05-04T18:04:36.468Z,4.20
2023-05-04T18:07:03.131Z,4.15
2023-05-04T18:09:29.742Z,4.00
2023-05-04T18:11:56.426Z,3.80
2023-05-04T18:14:22.943Z,4.03
2023-05-04T18:16:49.384Z,4.03
2023-05-04T18:19:16.044Z,4.40
2023-05-04T18:21:42.624Z,4.05
2023-05-04T18:24:09.074Z,4.20
2023-05-04T18:26:35.598Z,4.18
2023-05-04T18:29:17.405Z,4.30
2023-05-04T18:31:45.489Z,4.28
2023-05-04T18:34:12.043Z,4.53
2023-05-04T18:36:38.621Z,4.20
2023-05-04T18:39:05.143Z,4.30
2023-05-04T18:41:31.601Z,4.35
2023-05-04T18:43:58.038Z,4.57
2023-05-04T18:46:24.566Z,3.88
2023-05-04T18:48:51.057Z,4.57
2023-05-04T18:51:17.642Z,4.53
2023-05-04T18:53:44.260Z,4.30
2023-05-04T18:56:11.159Z,4.20
2023-05-04T18:58:38.445Z,4.20
2023-05-04T19:01:05.586Z,4.50
2023-05-04T19:03:32.197Z,4.32
2023-05-04T19:05:58.808Z,4.28
2023-05-04T19:08:25.374Z,4.32
2023-05-04T19:10:51.892Z,4.70
2023-05-04T19:13:18.542Z,4.43
2023-05-04T19:15:45.627Z,4.50
2023-05-04T19:18:12.137Z,4.43
2023-05-04T19:20:39.290Z,4.40
2023-05-04T19:23:05.988Z,4.63
2023-05-04T19:25:35.041Z,4.30
2023-05-04T19:28:03.328Z,4.63
2023-05-04T19:30:29.853Z,4.60
2023-05-04T19:32:56.391Z,4.57
2023-05-04T19:35:22.904Z,4.90
2023-05-04T19:37:49.411Z,4.50
2023-05-04T19:40:15.920Z,4.47
2023-05-04T19:42:42.568Z,4.80
2023-05-04T19:45:09.628Z,4.97
2023-05-04T19:47:36.157Z,4.70
2023-05-04T19:50:02.742Z,4.90
2023-05-04T19:52:29.255Z,5.00
2023-05-04T19:54:55.707Z,4.50
2023-05-04T19:57:22.279Z,4.90
2023-05-04T19:59:48.885Z,4.85
2023-05-04T20:02:15.505Z,4.73
2023-05-04T20:04:41.963Z,4.97
2023-05-04T20:07:08.510Z,4.95
2023-05-04T20:09:35.000Z,5.05
2023-05-04T20:12:01.501Z,5.40
2023-05-04T20:14:27.968Z,5.00
2023-05-04T20:16:54.600Z,4.70
2023-05-04T20:19:21.266Z,5.40
2023-05-04T20:21:47.795Z,5.10
2023-05-04T20:24:14.302Z,4.88
2023-05-04T20:26:40.972Z,4.90
2023-05-04T20:29:07.492Z,4.75
2023-05-04T20:31:34.080Z,5.28
2023-05-04T20:34:00.850Z,5.13
2023-05-04T20:36:27.393Z,5.38
2023-05-04T20:38:53.815Z,4.83
2023-05-04T20:41:20.392Z,4.82
2023-05-04T20:43:46.797Z,5.13
2023-05-04T20:46:13.531Z,5.53
2023-05-04T20:48:40.046Z,6.25
2023-05-04T20:51:14.113Z,6.33
2023-05-04T20:53:41.844Z,11.25
2023-05-04T20:56:08.392Z,13.20
2023-05-04T20:58:35.025Z,8.25
2023-05-04T21:01:05.453Z,6.18
2023-05-04T21:03:32.231Z,6.53
2023-05-04T21:05:58.835Z,6.07
2023-05-04T21:08:25.335Z,6.50
2023-05-04T21:10:52.109Z,5.97
2023-05-04T21:13:19.146Z,6.00
2023-05-04T21:15:45.884Z,6.50
2023-05-04T21:18:12.444Z,6.80
2023-05-04T21:20:39.425Z,6.65
2023-05-04T21:23:06.221Z,6.95
2023-05-04T21:25:32.715Z,6.95
2023-05-04T21:27:59.223Z,7.20
2023-05-04T21:30:25.712Z,7.43
2023-05-04T21:32:52.245Z,7.50
2023-05-04T21:35:18.920Z,7.53
2023-05-04T21:37:45.723Z,7.65
2023-05-04T21:40:12.255Z,7.90
2023-05-04T21:42:38.830Z,8.40
2023-05-04T21:45:07.280Z,8.02
2023-05-04T21:47:33.833Z,7.50
2023-05-04T21:50:00.455Z,7.28
2023-05-04T21:52:26.898Z,8.20
2023-05-04T21:54:53.415Z,7.90
2023-05-04T21:57:19.893Z,8.60
2023-05-04T21:59:49.945Z,8.80
2023-05-04T22:02:16.422Z,8.43
2023-05-04T22:04:43.267Z,8.90
2023-05-04T22:07:10.867Z,8.70
2023-05-04T22:09:37.350Z,9.25
2023-05-04T22:12:04.013Z,9.02
2023-05-04T22:14:30.529Z,9.32
2023-05-04T22:16:57.048Z,9.17
2023-05-04T22:19:23.646Z,9.38
2023-05-04T22:21:50.076Z,9.32
2023-05-04T22:24:16.674Z,8.93
2023-05-04T22:26:44.723Z,9.40
2023-05-04T22:29:11.369Z,8.70
2023-05-04T22:31:37.890Z,9.27
2023-05-04T22:34:04.318Z,9.95
2023-05-04T22:36:30.775Z,9.43
2023-05-04T22:38:57.288Z,10.40
2023-05-04T22:41:23.988Z,9.33
2023-05-04T22:43:50.430Z,10.75
2023-05-04T22:46:17.741Z,10.20
2023-05-04T22:48:47.593Z,10.23
2023-05-04T22:51:14.733Z,11.20
2023-05-04T22:53:41.459Z,10.90
2023-05-04T22:56:07.986Z,10.57
2023-05-04T22:58:34.540Z,11.05
2023-05-04T23:01:01.088Z,11.00
2023-05-04T23:03:27.646Z,10.98
2023-05-04T23:05:54.256Z,11.63
2023-05-04T23:08:21.004Z,11.20
2023-05-04T23:10:48.298Z,13.90
2023-05-04T23:13:14.959Z,11.82
2023-05-04T23:15:41.542Z,13.43
2023-05-04T23:18:08.104Z,13.83
2023-05-04T23:20:34.774Z,15.40
2023-05-04T23:23:01.326Z,13.85
2023-05-04T23:25:27.945Z,15.40
2023-05-04T23:27:54.377Z,16.25
2023-05-04T23:30:20.799Z,15.47
2023-05-04T23:32:47.371Z,11.30
2023-05-04T23:35:13.972Z,8.25
2023-05-04T23:37:40.659Z,7.05
2023-05-04T23:40:08.828Z,5.90
2023-05-04T23:42:35.667Z,5.20
2023-05-04T23:45:02.380Z,5.82
2023-05-04T23:47:28.858Z,5.80
2023-05-04T23:49:55.590Z,5.65
2023-05-04T23:52:22.018Z,5.18
2023-05-04T23:54:52.783Z,4.60
2023-05-04T23:57:19.351Z,4.68
2023-05-04T23:59:46.894Z,4.60
